| time (UTC) | temp F | wind direction | speed MPH | gust MPH | rain 1hr in | rain 24hr in | rain mn in | humidity % | barometer mb |
| 20260503034313 | 62 | 327 | 0.0 | 0.0 | 0.00 | 0.01 | 0.01 | 39 | 1020.0 |
| 20260503033252 | 62 | 327 | 0.0 | 0.0 | 0.00 | 0.01 | 0.01 | 41 | 1019.8 |
| 20260503032300 | 62 | 327 | 0.0 | 0.0 | 0.00 | 0.01 | 0.01 | 43 | 1019.7 |
| 20260503031227 | 63 | 327 | 0.0 | 0.0 | 0.00 | 0.01 | 0.01 | 45 | 1019.8 |
| 20260503030206 | 63 | 327 | 0.0 | 0.0 | 0.00 | 0.01 | 0.01 | 49 | 1019.7 |
| 20260503025223 | 64 | 327 | 0.0 | 0.0 | 0.00 | 0.01 | 0.01 | 52 | 1019.6 |
| 20260503024232 | 64 | 327 | 0.0 | 0.0 | 0.00 | 0.01 | 0.01 | 55 | 1019.8 |
| 20260503023234 | 65 | 327 | 0.0 | 0.0 | 0.00 | 0.01 | 0.01 | 58 | 1019.6 |
| 20260503022233 | 65 | 327 | 0.0 | 0.0 | 0.00 | 0.01 | 0.01 | 59 | 1019.3 |
| 20260503021220 | 66 | 327 | 0.0 | 0.0 | 0.00 | 0.01 | 0.01 | 61 | 1019.3 |
| 20260503015104 | 67 | 327 | 0.0 | 0.0 | 0.00 | 0.01 | 0.01 | 65 | 1018.9 |
| 20260503014044 | 68 | 327 | 0.0 | 0.0 | 0.00 | 0.01 | 0.01 | 66 | 1018.8 |
| 20260503013054 | 69 | 327 | 0.0 | 0.0 | 0.00 | 0.01 | 0.01 | 65 | 1018.8 |
| 20260503012114 | 70 | 327 | 0.0 | 0.0 | 0.00 | 0.01 | 0.01 | 65 | 1018.7 |
| 20260503011125 | 71 | 327 | 0.0 | 0.0 | 0.00 | 0.01 | 0.01 | 63 | 1018.6 |
| 20260503010121 | 72 | 327 | 0.0 | 0.0 | 0.00 | 0.01 | 0.01 | 57 | 1018.5 |
| 20260503005114 | 72 | 327 | 0.0 | 0.0 | 0.00 | 0.02 | 0.01 | 56 | 1018.3 |
| 20260503003002 | 73 | 327 | 0.0 | 0.0 | 0.00 | 0.04 | 0.01 | 54 | 1018.1 |
| 20260503002002 | 74 | 327 | 0.0 | 2.0 | 0.00 | 0.05 | 0.01 | 51 | 1018.1 |
| 20260503001024 | 74 | 316 | 0.0 | 0.0 | 0.00 | 0.06 | 0.01 | 51 | 1017.9 |
| 20260503000043 | 74 | 297 | 0.0 | 1.0 | 0.00 | 0.07 | 0.01 | 49 | 1017.8 |
| 20260502235015 | 75 | 278 | 0.0 | 4.0 | 0.00 | 0.09 | 0.01 | 48 | 1017.8 |
| 20260502233951 | 75 | 344 | 1.0 | 4.0 | 0.00 | 0.11 | 0.01 | 47 | 1017.8 |
| 20260502232928 | 75 | 340 | 0.0 | 5.0 | 0.00 | 0.14 | 0.01 | 46 | 1017.8 |
| 20260502231858 | 76 | 167 | 1.0 | 5.0 | 0.00 | 0.14 | 0.01 | 45 | 1017.7 |
| 20260502230916 | 77 | 88 | 0.0 | 3.0 | 0.00 | 0.16 | 0.01 | 44 | 1017.6 |
| 20260502224756 | 78 | 300 | 0.0 | 3.0 | 0.00 | 0.26 | 0.01 | 44 | 1017.7 |
| 20260502223731 | 78 | 223 | 0.0 | 8.0 | 0.00 | 0.26 | 0.01 | 43 | 1017.8 |
| 20260502222717 | 78 | 343 | 0.0 | 8.0 | 0.00 | 0.26 | 0.01 | 43 | 1017.8 |
| 20260502221718 | 78 | 337 | 0.0 | 2.0 | 0.00 | 0.26 | 0.01 | 44 | 1017.9 |
| 20260502215537 | 79 | 297 | 0.0 | 6.0 | 0.00 | 0.28 | 0.01 | 42 | 1017.9 |
| 20260502213400 | 79 | 338 | 0.0 | 5.0 | 0.00 | 0.35 | 0.01 | 42 | 1018.0 |
| 20260502212420 | 79 | 344 | 0.0 | 3.0 | 0.00 | 0.37 | 0.01 | 42 | 1018.0 |
| 20260502211403 | 79 | 66 | 1.0 | 5.0 | 0.00 | 0.38 | 0.01 | 44 | 1018.1 |
| 20260502210406 | 78 | 325 | 1.0 | 5.0 | 0.00 | 0.39 | 0.01 | 43 | 1018.2 |
| 20260502205425 | 79 | 297 | 1.0 | 6.0 | 0.00 | 0.41 | 0.01 | 44 | 1018.3 |
| 20260502204357 | 78 | 97 | 1.0 | 7.0 | 0.00 | 0.42 | 0.01 | 44 | 1018.4 |
| 20260502203343 | 78 | 109 | 0.0 | 7.0 | 0.00 | 0.43 | 0.01 | 42 | 1018.6 |
| 20260502202350 | 78 | 342 | 1.0 | 9.0 | 0.00 | 0.45 | 0.01 | 44 | 1018.5 |
| 20260502201354 | 78 | 36 | 1.0 | 9.0 | 0.00 | 0.47 | 0.01 | 42 | 1018.7 |
| 20260502200344 | 78 | 329 | 0.0 | 6.0 | 0.00 | 0.47 | 0.01 | 44 | 1018.7 |
| 20260502195401 | 77 | 257 | 1.0 | 6.0 | 0.00 | 0.48 | 0.01 | 43 | 1018.8 |
| 20260502194348 | 77 | 324 | 1.0 | 5.0 | 0.00 | 0.49 | 0.01 | 45 | 1018.9 |
| 20260502193351 | 78 | 16 | 0.0 | 4.0 | 0.00 | 0.50 | 0.01 | 44 | 1019.1 |
| 20260502192341 | 77 | 331 | 1.0 | 10.0 | 0.00 | 0.52 | 0.01 | 46 | 1019.2 |
| 20260502191318 | 76 | 139 | 1.0 | 10.0 | 0.00 | 0.52 | 0.01 | 45 | 1019.3 |
| 20260502190308 | 76 | 323 | 2.0 | 10.0 | 0.00 | 0.53 | 0.01 | 46 | 1019.4 |
| 20260502185258 | 76 | 304 | 1.0 | 10.0 | 0.00 | 0.53 | 0.01 | 48 | 1019.5 |
| 20260502184235 | 75 | 331 | 1.0 | 8.0 | 0.00 | 0.53 | 0.01 | 48 | 1019.6 |
| 20260502183227 | 75 | 267 | 1.0 | 8.0 | 0.00 | 0.53 | 0.01 | 46 | 1019.8 |
| 20260502181121 | 75 | 327 | 0.0 | 8.0 | 0.00 | 0.53 | 0.01 | 48 | 1020.1 |
| 20260502180137 | 74 | 333 | 1.0 | 8.0 | 0.00 | 0.54 | 0.01 | 50 | 1020.2 |
| 20260502163951 | 71 | 302 | 1.0 | 7.0 | 0.00 | 0.57 | 0.01 | 58 | 1020.7 |
| 20260502162953 | 70 | 285 | 1.0 | 7.0 | 0.00 | 0.57 | 0.01 | 62 | 1020.7 |
| 20260502161932 | 69 | 320 | 1.0 | 4.0 | 0.00 | 0.60 | 0.01 | 62 | 1020.7 |
| 20260502123802 | 54 | 344 | 0.0 | 3.0 | 0.00 | 1.82 | 0.01 | 2 | 1018.8 |
| 20260502122739 | 53 | 248 | 0.0 | 2.0 | 0.00 | 1.92 | 0.01 | 2 | 1018.6 |
| 20260502121741 | 53 | 271 | 0.0 | 2.0 | 0.00 | 1.95 | 0.01 | 2 | 1018.5 |
| 20260502120758 | 53 | 347 | 0.0 | 0.0 | 0.00 | 2.00 | 0.00 | 2 | 1018.4 |
| 20260502115740 | 53 | 347 | 0.0 | 0.0 | 0.00 | 2.11 | 0.00 | 3 | 1018.3 |
| 20260502114739 | 53 | 347 | 0.0 | 0.0 | 0.00 | 2.14 | 0.00 | 3 | 1018.3 |
| 20260502113713 | 53 | 347 | 0.0 | 0.0 | 0.00 | 2.16 | 0.00 | 3 | 1018.2 |
| 20260502112644 | 53 | 347 | 0.0 | 0.0 | 0.00 | 2.18 | 0.00 | 3 | 1018.1 |
| 20260502111615 | 53 | 347 | 0.0 | 0.0 | 0.00 | 2.22 | 0.00 | 3 | 1017.9 |
| 20260502110617 | 53 | 347 | 0.0 | 0.0 | 0.00 | 2.32 | 0.00 | 3 | 1017.8 |
| 20260502105551 | 53 | 347 | 0.0 | 0.0 | 0.00 | 2.36 | 0.00 | 3 | 1017.7 |
| 20260502104605 | 53 | 347 | 0.0 | 0.0 | 0.00 | 2.38 | 0.00 | 3 | 1017.6 |
| 20260502103543 | 53 | 347 | 0.0 | 0.0 | 0.00 | 2.40 | 0.00 | 3 | 1017.5 |
| 20260502102530 | 53 | 348 | 0.0 | 0.0 | 0.00 | 2.40 | 0.00 | 3 | 1017.5 |
| 20260502101541 | 53 | 333 | 0.0 | 2.0 | 0.00 | 2.42 | 0.00 | 3 | 1017.3 |
| 20260502100517 | 53 | 348 | 0.0 | 0.0 | 0.00 | 2.43 | 0.00 | 3 | 1017.2 |
| 20260502091432 | 54 | 350 | 0.0 | 0.0 | 0.00 | 2.62 | 0.00 | 3 | 1016.3 |
| 20260502090435 | 54 | 350 | 0.0 | 0.0 | 0.00 | 2.62 | 0.00 | 3 | 1016.1 |
| 20260502071106 | 55 | 298 | 0.0 | 1.0 | 0.00 | 2.82 | 0.00 | 1 | 1016.1 |
| 20260502070117 | 55 | 315 | 0.0 | 5.0 | 0.00 | 2.82 | 0.00 | 1 | 1016.2 |
| 20260502065100 | 55 | 347 | 0.0 | 0.0 | 0.00 | 2.82 | 0.00 | 1 | 1015.9 |
| 20260502064113 | 55 | 298 | 0.0 | 4.0 | 0.00 | 2.82 | 0.00 | 1 | 1016.0 |
| 20260502061955 | 55 | 313 | 0.0 | 8.0 | 0.00 | 2.83 | 0.00 | 1 | 1015.8 |
| 20260502060957 | 55 | 343 | 0.0 | 8.0 | 0.00 | 2.84 | 0.00 | 1 | 1015.7 |
| 20260502054916 | 55 | 94 | 0.0 | 4.0 | 0.00 | 2.87 | 0.00 | 1 | 1015.7 |
| 20260502053907 | 55 | 346 | 0.0 | 7.0 | 0.00 | 2.87 | 0.00 | 1 | 1015.8 |
| 20260502051804 | 56 | 83 | 0.0 | 4.0 | 0.00 | 2.88 | 0.00 | 1 | 1015.8 |
| 20260502050742 | 56 | 0 | 0.0 | 8.0 | 0.00 | 2.88 | 0.00 | 1 | 1015.8 |
| 20260502045806 | 56 | 320 | 1.0 | 8.0 | 0.00 | 2.88 | 2.88 | 1 | 1015.7 |
| 20260502044830 | 56 | 327 | 0.0 | 5.0 | 0.00 | 2.88 | 2.88 | 1 | 1015.7 |
| 20260502043808 | 56 | 260 | 0.0 | 5.0 | 0.00 | 2.88 | 2.88 | 1 | 1015.7 |
| 20260502042806 | 56 | 314 | 0.0 | 1.0 | 0.00 | 2.90 | 2.88 | 1 | 1015.6 |
| 20260502041756 | 56 | 346 | 1.0 | 9.0 | 0.00 | 2.91 | 2.88 | 1 | 1015.6 |
| 20260502040736 | 56 | 334 | 0.0 | 7.0 | 0.00 | 2.91 | 2.88 | 1 | 1015.6 |
| 20260502035729 | 56 | 304 | 1.0 | 7.0 | 0.00 | 2.91 | 2.88 | 1 | 1015.7 |